sensor_id;sensor_type;location;lat;lon;timestamp;temperature;humidity
3756;DHT22;1893;52.526;13.360;2023-08-30T00:00:19;14.40;99.90
3756;DHT22;1893;52.526;13.360;2023-08-30T00:02:48;14.30;99.90
3756;DHT22;1893;52.526;13.360;2023-08-30T00:05:14;14.20;99.90
3756;DHT22;1893;52.526;13.360;2023-08-30T00:07:40;14.20;99.90
3756;DHT22;1893;52.526;13.360;2023-08-30T00:10:08;14.20;99.90
3756;DHT22;1893;52.526;13.360;2023-08-30T00:12:36;14.20;99.90
3756;DHT22;1893;52.526;13.360;2023-08-30T00:15:02;14.20;99.90
3756;DHT22;1893;52.526;13.360;2023-08-30T00:17:27;14.20;99.90
3756;DHT22;1893;52.526;13.360;2023-08-30T00:19:53;14.20;99.90
3756;DHT22;1893;52.526;13.360;2023-08-30T00:22:21;14.20;99.90
3756;DHT22;1893;52.526;13.360;2023-08-30T00:24:47;14.20;99.90
3756;DHT22;1893;52.526;13.360;2023-08-30T00:27:13;14.20;99.90
3756;DHT22;1893;52.526;13.360;2023-08-30T00:29:38;14.20;99.90
3756;DHT22;1893;52.526;13.360;2023-08-30T00:32:04;14.20;99.90
3756;DHT22;1893;52.526;13.360;2023-08-30T00:34:30;14.20;99.90
3756;DHT22;1893;52.526;13.360;2023-08-30T00:36:55;14.20;99.90
3756;DHT22;1893;52.526;13.360;2023-08-30T00:39:21;14.10;99.90
3756;DHT22;1893;52.526;13.360;2023-08-30T00:41:47;14.10;99.90
3756;DHT22;1893;52.526;13.360;2023-08-30T00:44:13;14.10;99.90
3756;DHT22;1893;52.526;13.360;2023-08-30T00:46:39;14.00;99.90
3756;DHT22;1893;52.526;13.360;2023-08-30T00:49:04;13.90;99.90
3756;DHT22;1893;52.526;13.360;2023-08-30T00:51:31;14.00;99.90
3756;DHT22;1893;52.526;13.360;2023-08-30T00:53:59;14.00;99.90
3756;DHT22;1893;52.526;13.360;2023-08-30T00:56:27;14.00;99.90
3756;DHT22;1893;52.526;13.360;2023-08-30T00:58:53;14.00;99.90
3756;DHT22;1893;52.526;13.360;2023-08-30T01:01:18;14.00;99.90
3756;DHT22;1893;52.526;13.360;2023-08-30T01:03:45;13.90;99.90
3756;DHT22;1893;52.526;13.360;2023-08-30T01:06:10;13.90;99.90
3756;DHT22;1893;52.526;13.360;2023-08-30T01:08:36;13.90;99.90
3756;DHT22;1893;52.526;13.360;2023-08-30T01:14:09;14.00;99.90
3756;DHT22;1893;52.526;13.360;2023-08-30T01:16:36;14.00;99.90
3756;DHT22;1893;52.526;13.360;2023-08-30T01:19:11;14.00;99.90
3756;DHT22;1893;52.526;13.360;2023-08-30T01:21:53;14.10;99.90
3756;DHT22;1893;52.526;13.360;2023-08-30T01:24:32;14.10;99.90
3756;DHT22;1893;52.526;13.360;2023-08-30T01:27:11;14.00;99.90
3756;DHT22;1893;52.526;13.360;2023-08-30T01:29:40;14.00;99.90
3756;DHT22;1893;52.526;13.360;2023-08-30T01:32:09;14.00;99.90
3756;DHT22;1893;52.526;13.360;2023-08-30T01:34:39;14.00;99.90
3756;DHT22;1893;52.526;13.360;2023-08-30T01:37:07;14.00;99.90
3756;DHT22;1893;52.526;13.360;2023-08-30T01:39:40;14.00;99.90
3756;DHT22;1893;52.526;13.360;2023-08-30T01:42:07;14.00;99.90
3756;DHT22;1893;52.526;13.360;2023-08-30T01:44:33;14.00;99.90
3756;DHT22;1893;52.526;13.360;2023-08-30T01:47:00;14.00;99.90
3756;DHT22;1893;52.526;13.360;2023-08-30T01:49:28;14.00;99.90
3756;DHT22;1893;52.526;13.360;2023-08-30T01:51:57;14.00;99.90
3756;DHT22;1893;52.526;13.360;2023-08-30T01:54:23;14.00;99.90
3756;DHT22;1893;52.526;13.360;2023-08-30T01:56:49;13.90;99.90
3756;DHT22;1893;52.526;13.360;2023-08-30T01:59:15;13.90;99.90
3756;DHT22;1893;52.526;13.360;2023-08-30T02:01:41;13.90;99.90
3756;DHT22;1893;52.526;13.360;2023-08-30T02:04:06;13.90;99.90
3756;DHT22;1893;52.526;13.360;2023-08-30T02:06:39;13.90;99.90
3756;DHT22;1893;52.526;13.360;2023-08-30T02:09:21;13.80;99.90
3756;DHT22;1893;52.526;13.360;2023-08-30T02:11:51;13.90;99.90
3756;DHT22;1893;52.526;13.360;2023-08-30T02:14:18;13.80;99.90
3756;DHT22;1893;52.526;13.360;2023-08-30T02:16:47;13.80;99.90
3756;DHT22;1893;52.526;13.360;2023-08-30T02:19:14;13.80;99.90
3756;DHT22;1893;52.526;13.360;2023-08-30T02:21:46;13.60;99.90
3756;DHT22;1893;52.526;13.360;2023-08-30T02:24:12;13.70;99.90
3756;DHT22;1893;52.526;13.360;2023-08-30T02:26:37;13.80;99.90
3756;DHT22;1893;52.526;13.360;2023-08-30T02:29:03;13.70;99.90
3756;DHT22;1893;52.526;13.360;2023-08-30T02:31:29;13.60;99.90
3756;DHT22;1893;52.526;13.360;2023-08-30T02:33:54;13.60;99.90
3756;DHT22;1893;52.526;13.360;2023-08-30T02:36:20;13.60;99.90
3756;DHT22;1893;52.526;13.360;2023-08-30T02:38:46;13.50;99.90
3756;DHT22;1893;52.526;13.360;2023-08-30T02:41:11;13.60;99.90
3756;DHT22;1893;52.526;13.360;2023-08-30T02:43:38;13.50;99.90
3756;DHT22;1893;52.526;13.360;2023-08-30T02:46:03;13.50;99.90
3756;DHT22;1893;52.526;13.360;2023-08-30T02:48:31;13.50;99.90
3756;DHT22;1893;52.526;13.360;2023-08-30T02:50:57;13.40;99.90
3756;DHT22;1893;52.526;13.360;2023-08-30T02:53:23;13.50;99.90
3756;DHT22;1893;52.526;13.360;2023-08-30T02:55:48;13.40;99.90
3756;DHT22;1893;52.526;13.360;2023-08-30T02:58:14;13.40;99.90
3756;DHT22;1893;52.526;13.360;2023-08-30T03:00:40;13.40;99.90
3756;DHT22;1893;52.526;13.360;2023-08-30T03:03:05;13.40;99.90
3756;DHT22;1893;52.526;13.360;2023-08-30T03:05:31;13.50;99.90
3756;DHT22;1893;52.526;13.360;2023-08-30T03:07:57;13.50;99.90
3756;DHT22;1893;52.526;13.360;2023-08-30T03:10:22;13.40;99.90
3756;DHT22;1893;52.526;13.360;2023-08-30T03:12:48;13.40;99.90
3756;DHT22;1893;52.526;13.360;2023-08-30T03:15:13;13.40;99.90
3756;DHT22;1893;52.526;13.360;2023-08-30T03:17:39;13.40;99.90
3756;DHT22;1893;52.526;13.360;2023-08-30T03:20:05;13.40;99.90
3756;DHT22;1893;52.526;13.360;2023-08-30T03:22:31;13.40;99.90
3756;DHT22;1893;52.526;13.360;2023-08-30T03:24:57;13.40;99.90
3756;DHT22;1893;52.526;13.360;2023-08-30T03:27:23;13.40;99.90
3756;DHT22;1893;52.526;13.360;2023-08-30T03:29:48;13.30;99.90
3756;DHT22;1893;52.526;13.360;2023-08-30T03:32:16;13.40;99.90
3756;DHT22;1893;52.526;13.360;2023-08-30T03:34:46;13.40;99.90
3756;DHT22;1893;52.526;13.360;2023-08-30T03:37:15;13.40;99.90
3756;DHT22;1893;52.526;13.360;2023-08-30T03:39:41;13.40;99.90
3756;DHT22;1893;52.526;13.360;2023-08-30T03:42:07;13.40;99.90
3756;DHT22;1893;52.526;13.360;2023-08-30T03:44:33;13.40;99.90
3756;DHT22;1893;52.526;13.360;2023-08-30T03:46:59;13.40;99.90
3756;DHT22;1893;52.526;13.360;2023-08-30T03:49:24;13.40;99.90
3756;DHT22;1893;52.526;13.360;2023-08-30T03:51:50;13.40;99.90
3756;DHT22;1893;52.526;13.360;2023-08-30T03:54:15;13.40;99.90
3756;DHT22;1893;52.526;13.360;2023-08-30T03:56:44;13.40;99.90
3756;DHT22;1893;52.526;13.360;2023-08-30T03:59:11;13.40;99.90
3756;DHT22;1893;52.526;13.360;2023-08-30T04:01:37;13.40;99.90
3756;DHT22;1893;52.526;13.360;2023-08-30T04:04:03;13.40;99.90
3756;DHT22;1893;52.526;13.360;2023-08-30T04:06:28;13.40;99.90
3756;DHT22;1893;52.526;13.360;2023-08-30T04:08:54;13.40;99.90
3756;DHT22;1893;52.526;13.360;2023-08-30T04:11:20;13.40;99.90
3756;DHT22;1893;52.526;13.360;2023-08-30T04:13:45;13.40;99.90
3756;DHT22;1893;52.526;13.360;2023-08-30T04:16:11;13.40;99.90
3756;DHT22;1893;52.526;13.360;2023-08-30T04:18:36;13.40;99.90
3756;DHT22;1893;52.526;13.360;2023-08-30T04:21:02;13.40;99.90
3756;DHT22;1893;52.526;13.360;2023-08-30T04:23:29;13.40;99.90
3756;DHT22;1893;52.526;13.360;2023-08-30T04:25:55;13.40;99.90
3756;DHT22;1893;52.526;13.360;2023-08-30T04:28:21;13.40;99.90
3756;DHT22;1893;52.526;13.360;2023-08-30T04:30:46;13.40;99.90
3756;DHT22;1893;52.526;13.360;2023-08-30T04:33:12;13.40;99.90
3756;DHT22;1893;52.526;13.360;2023-08-30T04:35:38;13.40;99.90
3756;DHT22;1893;52.526;13.360;2023-08-30T04:38:04;13.40;99.90
3756;DHT22;1893;52.526;13.360;2023-08-30T04:40:31;13.40;99.90
3756;DHT22;1893;52.526;13.360;2023-08-30T04:42:58;13.40;99.90
3756;DHT22;1893;52.526;13.360;2023-08-30T04:45:24;13.40;99.90
3756;DHT22;1893;52.526;13.360;2023-08-30T04:47:49;13.40;99.90
3756;DHT22;1893;52.526;13.360;2023-08-30T04:50:15;13.40;99.90
3756;DHT22;1893;52.526;13.360;2023-08-30T04:52:42;13.50;99.90
3756;DHT22;1893;52.526;13.360;2023-08-30T04:55:08;13.50;99.90
3756;DHT22;1893;52.526;13.360;2023-08-30T04:57:34;13.50;99.90
3756;DHT22;1893;52.526;13.360;2023-08-30T04:59:59;13.50;99.90
3756;DHT22;1893;52.526;13.360;2023-08-30T05:02:29;13.50;99.90
3756;DHT22;1893;52.526;13.360;2023-08-30T05:04:55;13.60;99.90
3756;DHT22;1893;52.526;13.360;2023-08-30T05:07:20;13.60;99.90
3756;DHT22;1893;52.526;13.360;2023-08-30T05:09:46;13.70;99.90
3756;DHT22;1893;52.526;13.360;2023-08-30T05:12:12;13.70;99.90
3756;DHT22;1893;52.526;13.360;2023-08-30T05:14:37;13.80;99.90
3756;DHT22;1893;52.526;13.360;2023-08-30T05:17:03;13.80;99.90
3756;DHT22;1893;52.526;13.360;2023-08-30T05:19:29;13.80;99.90
3756;DHT22;1893;52.526;13.360;2023-08-30T05:21:56;13.90;99.90
3756;DHT22;1893;52.526;13.360;2023-08-30T05:24:21;13.90;99.90
3756;DHT22;1893;52.526;13.360;2023-08-30T05:26:47;14.00;99.90
3756;DHT22;1893;52.526;13.360;2023-08-30T05:29:14;14.10;99.90
3756;DHT22;1893;52.526;13.360;2023-08-30T05:31:40;14.20;99.90
3756;DHT22;1893;52.526;13.360;2023-08-30T05:34:06;14.30;99.90
3756;DHT22;1893;52.526;13.360;2023-08-30T05:36:32;14.30;99.90
3756;DHT22;1893;52.526;13.360;2023-08-30T05:38:58;14.30;99.90
3756;DHT22;1893;52.526;13.360;2023-08-30T05:41:23;14.30;99.90
3756;DHT22;1893;52.526;13.360;2023-08-30T05:43:49;14.40;99.90
3756;DHT22;1893;52.526;13.360;2023-08-30T05:46:14;14.30;99.90
3756;DHT22;1893;52.526;13.360;2023-08-30T05:48:41;14.40;99.90
3756;DHT22;1893;52.526;13.360;2023-08-30T05:51:07;14.40;99.90
3756;DHT22;1893;52.526;13.360;2023-08-30T05:53:32;14.50;99.90
3756;DHT22;1893;52.526;13.360;2023-08-30T05:55:58;14.50;99.90
3756;DHT22;1893;52.526;13.360;2023-08-30T05:58:23;14.50;99.90
3756;DHT22;1893;52.526;13.360;2023-08-30T06:00:49;14.50;99.90
3756;DHT22;1893;52.526;13.360;2023-08-30T06:03:15;14.60;99.90
3756;DHT22;1893;52.526;13.360;2023-08-30T06:05:40;14.60;99.90
3756;DHT22;1893;52.526;13.360;2023-08-30T06:08:06;14.70;99.90
3756;DHT22;1893;52.526;13.360;2023-08-30T06:10:33;14.70;99.90
3756;DHT22;1893;52.526;13.360;2023-08-30T06:12:58;14.80;99.90
3756;DHT22;1893;52.526;13.360;2023-08-30T06:15:24;14.80;99.90
3756;DHT22;1893;52.526;13.360;2023-08-30T06:17:50;14.80;99.90
3756;DHT22;1893;52.526;13.360;2023-08-30T06:20:16;14.90;99.90
3756;DHT22;1893;52.526;13.360;2023-08-30T06:22:42;15.00;99.90
3756;DHT22;1893;52.526;13.360;2023-08-30T06:25:08;15.10;99.90
3756;DHT22;1893;52.526;13.360;2023-08-30T06:27:40;15.20;99.90
3756;DHT22;1893;52.526;13.360;2023-08-30T06:30:06;15.20;99.90
3756;DHT22;1893;52.526;13.360;2023-08-30T06:32:32;15.20;99.90
3756;DHT22;1893;52.526;13.360;2023-08-30T06:34:58;15.30;99.90
3756;DHT22;1893;52.526;13.360;2023-08-30T06:37:24;15.40;99.90
3756;DHT22;1893;52.526;13.360;2023-08-30T06:39:50;15.40;99.90
3756;DHT22;1893;52.526;13.360;2023-08-30T06:42:16;15.40;99.90
3756;DHT22;1893;52.526;13.360;2023-08-30T06:44:41;15.40;99.90
3756;DHT22;1893;52.526;13.360;2023-08-30T06:47:07;15.40;99.90
3756;DHT22;1893;52.526;13.360;2023-08-30T06:49:33;15.40;99.90
3756;DHT22;1893;52.526;13.360;2023-08-30T06:51:59;15.50;99.90
3756;DHT22;1893;52.526;13.360;2023-08-30T06:54:28;15.50;99.90
3756;DHT22;1893;52.526;13.360;2023-08-30T06:57:01;15.60;99.90
3756;DHT22;1893;52.526;13.360;2023-08-30T06:59:27;15.70;99.90
3756;DHT22;1893;52.526;13.360;2023-08-30T07:01:53;15.80;99.90
3756;DHT22;1893;52.526;13.360;2023-08-30T07:04:19;15.70;99.90
3756;DHT22;1893;52.526;13.360;2023-08-30T07:06:44;15.90;99.90
3756;DHT22;1893;52.526;13.360;2023-08-30T07:09:10;15.90;99.90
3756;DHT22;1893;52.526;13.360;2023-08-30T07:11:37;16.00;99.90
3756;DHT22;1893;52.526;13.360;2023-08-30T07:14:03;16.10;99.90
3756;DHT22;1893;52.526;13.360;2023-08-30T07:16:29;16.10;99.90
3756;DHT22;1893;52.526;13.360;2023-08-30T07:18:54;16.00;99.90
3756;DHT22;1893;52.526;13.360;2023-08-30T07:21:20;16.00;99.90
3756;DHT22;1893;52.526;13.360;2023-08-30T07:23:46;16.00;99.90
3756;DHT22;1893;52.526;13.360;2023-08-30T07:26:11;16.10;99.90
3756;DHT22;1893;52.526;13.360;2023-08-30T07:28:37;16.10;99.90
3756;DHT22;1893;52.526;13.360;2023-08-30T07:31:04;16.10;99.90
3756;DHT22;1893;52.526;13.360;2023-08-30T07:33:29;16.10;99.90
3756;DHT22;1893;52.526;13.360;2023-08-30T07:35:55;16.10;99.90
3756;DHT22;1893;52.526;13.360;2023-08-30T07:38:21;16.10;99.90
3756;DHT22;1893;52.526;13.360;2023-08-30T07:40:46;16.10;99.90
3756;DHT22;1893;52.526;13.360;2023-08-30T07:43:12;16.00;99.90
3756;DHT22;1893;52.526;13.360;2023-08-30T07:45:37;16.10;99.90
3756;DHT22;1893;52.526;13.360;2023-08-30T07:48:03;16.00;99.90
3756;DHT22;1893;52.526;13.360;2023-08-30T07:50:29;16.00;99.90
3756;DHT22;1893;52.526;13.360;2023-08-30T07:52:54;16.00;99.90
3756;DHT22;1893;52.526;13.360;2023-08-30T07:55:20;16.00;99.90
3756;DHT22;1893;52.526;13.360;2023-08-30T07:57:46;15.90;99.90
3756;DHT22;1893;52.526;13.360;2023-08-30T08:00:12;15.90;99.90
3756;DHT22;1893;52.526;13.360;2023-08-30T08:02:38;16.00;99.90
3756;DHT22;1893;52.526;13.360;2023-08-30T08:05:04;16.10;99.90
3756;DHT22;1893;52.526;13.360;2023-08-30T08:07:30;16.10;99.90
3756;DHT22;1893;52.526;13.360;2023-08-30T08:09:56;16.20;99.90
3756;DHT22;1893;52.526;13.360;2023-08-30T08:12:22;16.20;99.90
3756;DHT22;1893;52.526;13.360;2023-08-30T08:14:48;16.10;99.90
3756;DHT22;1893;52.526;13.360;2023-08-30T08:17:13;16.10;99.90
3756;DHT22;1893;52.526;13.360;2023-08-30T08:19:39;16.20;99.90
3756;DHT22;1893;52.526;13.360;2023-08-30T08:22:05;16.30;99.90
3756;DHT22;1893;52.526;13.360;2023-08-30T08:24:31;16.20;99.90
3756;DHT22;1893;52.526;13.360;2023-08-30T08:26:57;16.20;99.90
3756;DHT22;1893;52.526;13.360;2023-08-30T08:29:22;16.30;99.90
3756;DHT22;1893;52.526;13.360;2023-08-30T08:31:48;16.50;99.90
3756;DHT22;1893;52.526;13.360;2023-08-30T08:34:14;16.60;99.90
3756;DHT22;1893;52.526;13.360;2023-08-30T08:36:41;16.70;99.90
3756;DHT22;1893;52.526;13.360;2023-08-30T08:39:07;16.90;99.90
3756;DHT22;1893;52.526;13.360;2023-08-30T08:41:44;16.90;99.90
3756;DHT22;1893;52.526;13.360;2023-08-30T08:44:11;16.90;99.90
3756;DHT22;1893;52.526;13.360;2023-08-30T08:46:37;17.10;99.90
3756;DHT22;1893;52.526;13.360;2023-08-30T08:49:16;17.20;99.90
3756;DHT22;1893;52.526;13.360;2023-08-30T08:51:44;17.20;99.90
3756;DHT22;1893;52.526;13.360;2023-08-30T08:54:11;17.30;99.90
3756;DHT22;1893;52.526;13.360;2023-08-30T08:56:38;17.40;99.90
3756;DHT22;1893;52.526;13.360;2023-08-30T08:59:04;17.30;99.90
3756;DHT22;1893;52.526;13.360;2023-08-30T09:01:36;17.40;99.90
3756;DHT22;1893;52.526;13.360;2023-08-30T09:04:06;17.70;99.90
3756;DHT22;1893;52.526;13.360;2023-08-30T09:06:33;17.80;99.90
3756;DHT22;1893;52.526;13.360;2023-08-30T09:08:59;17.80;99.90
3756;DHT22;1893;52.526;13.360;2023-08-30T09:11:25;17.80;99.90
3756;DHT22;1893;52.526;13.360;2023-08-30T09:13:51;17.90;99.90
3756;DHT22;1893;52.526;13.360;2023-08-30T09:16:16;18.10;99.90
3756;DHT22;1893;52.526;13.360;2023-08-30T09:18:42;18.10;99.90
3756;DHT22;1893;52.526;13.360;2023-08-30T09:21:09;18.10;99.90
3756;DHT22;1893;52.526;13.360;2023-08-30T09:23:35;18.30;99.90
3756;DHT22;1893;52.526;13.360;2023-08-30T09:26:01;18.60;99.90
3756;DHT22;1893;52.526;13.360;2023-08-30T09:28:28;18.60;99.90
3756;DHT22;1893;52.526;13.360;2023-08-30T09:30:54;18.70;99.90
3756;DHT22;1893;52.526;13.360;2023-08-30T09:33:29;18.90;99.90
3756;DHT22;1893;52.526;13.360;2023-08-30T09:35:54;19.10;99.90
3756;DHT22;1893;52.526;13.360;2023-08-30T09:38:20;19.10;99.90
3756;DHT22;1893;52.526;13.360;2023-08-30T09:40:46;19.10;99.90
3756;DHT22;1893;52.526;13.360;2023-08-30T09:43:13;18.80;99.90
3756;DHT22;1893;52.526;13.360;2023-08-30T09:45:39;19.30;99.90
3756;DHT22;1893;52.526;13.360;2023-08-30T09:48:06;19.60;99.90
3756;DHT22;1893;52.526;13.360;2023-08-30T09:50:34;20.10;99.90
3756;DHT22;1893;52.526;13.360;2023-08-30T09:53:07;20.10;99.90
3756;DHT22;1893;52.526;13.360;2023-08-30T09:55:34;20.40;99.90
3756;DHT22;1893;52.526;13.360;2023-08-30T09:58:02;20.80;99.90
3756;DHT22;1893;52.526;13.360;2023-08-30T10:00:30;20.70;99.90
3756;DHT22;1893;52.526;13.360;2023-08-30T10:02:58;20.90;99.90
3756;DHT22;1893;52.526;13.360;2023-08-30T10:05:24;21.00;99.90
3756;DHT22;1893;52.526;13.360;2023-08-30T10:07:52;21.10;99.90
3756;DHT22;1893;52.526;13.360;2023-08-30T10:10:19;21.70;99.90
3756;DHT22;1893;52.526;13.360;2023-08-30T10:12:46;22.10;99.90
3756;DHT22;1893;52.526;13.360;2023-08-30T10:15:12;22.60;99.90
3756;DHT22;1893;52.526;13.360;2023-08-30T10:17:40;22.70;99.90
3756;DHT22;1893;52.526;13.360;2023-08-30T10:20:07;23.00;99.90
3756;DHT22;1893;52.526;13.360;2023-08-30T10:22:35;22.80;99.90
3756;DHT22;1893;52.526;13.360;2023-08-30T10:25:11;22.50;99.90
3756;DHT22;1893;52.526;13.360;2023-08-30T10:27:41;22.50;99.90
3756;DHT22;1893;52.526;13.360;2023-08-30T10:30:09;21.70;99.90
3756;DHT22;1893;52.526;13.360;2023-08-30T10:32:42;21.40;99.90
3756;DHT22;1893;52.526;13.360;2023-08-30T10:35:15;20.90;99.90
3756;DHT22;1893;52.526;13.360;2023-08-30T10:37:42;21.20;99.90
3756;DHT22;1893;52.526;13.360;2023-08-30T10:40:08;21.30;99.90
3756;DHT22;1893;52.526;13.360;2023-08-30T10:42:34;21.30;99.90
3756;DHT22;1893;52.526;13.360;2023-08-30T10:45:05;21.00;99.90
3756;DHT22;1893;52.526;13.360;2023-08-30T10:47:32;20.70;99.90
3756;DHT22;1893;52.526;13.360;2023-08-30T10:50:05;20.30;99.90
3756;DHT22;1893;52.526;13.360;2023-08-30T10:52:31;20.50;99.90
3756;DHT22;1893;52.526;13.360;2023-08-30T10:55:06;20.60;99.90
3756;DHT22;1893;52.526;13.360;2023-08-30T10:57:35;20.80;99.90
3756;DHT22;1893;52.526;13.360;2023-08-30T11:00:18;21.20;99.90
3756;DHT22;1893;52.526;13.360;2023-08-30T11:02:51;21.10;99.90
3756;DHT22;1893;52.526;13.360;2023-08-30T11:05:19;21.00;99.90
3756;DHT22;1893;52.526;13.360;2023-08-30T11:07:46;20.90;99.90
3756;DHT22;1893;52.526;13.360;2023-08-30T11:10:14;20.80;99.90
3756;DHT22;1893;52.526;13.360;2023-08-30T11:12:43;20.90;99.90
3756;DHT22;1893;52.526;13.360;2023-08-30T11:15:11;20.70;99.90
3756;DHT22;1893;52.526;13.360;2023-08-30T11:17:36;20.60;99.90
3756;DHT22;1893;52.526;13.360;2023-08-30T11:20:10;20.50;99.90
3756;DHT22;1893;52.526;13.360;2023-08-30T11:22:37;20.60;99.90
3756;DHT22;1893;52.526;13.360;2023-08-30T11:25:03;20.80;99.90
3756;DHT22;1893;52.526;13.360;2023-08-30T11:27:29;20.90;99.90
3756;DHT22;1893;52.526;13.360;2023-08-30T11:29:59;20.80;99.90
3756;DHT22;1893;52.526;13.360;2023-08-30T11:32:25;20.80;99.90
3756;DHT22;1893;52.526;13.360;2023-08-30T11:34:57;20.70;99.90
3756;DHT22;1893;52.526;13.360;2023-08-30T11:37:27;20.70;99.90
3756;DHT22;1893;52.526;13.360;2023-08-30T11:39:54;20.60;99.90
3756;DHT22;1893;52.526;13.360;2023-08-30T11:42:21;20.50;99.90
3756;DHT22;1893;52.526;13.360;2023-08-30T11:44:47;20.50;99.90
3756;DHT22;1893;52.526;13.360;2023-08-30T11:47:26;20.70;99.90
3756;DHT22;1893;52.526;13.360;2023-08-30T11:49:56;20.70;99.90
3756;DHT22;1893;52.526;13.360;2023-08-30T11:52:23;20.70;99.90
3756;DHT22;1893;52.526;13.360;2023-08-30T11:54:49;20.70;99.90
3756;DHT22;1893;52.526;13.360;2023-08-30T11:57:16;20.80;99.90
3756;DHT22;1893;52.526;13.360;2023-08-30T11:59:42;20.70;99.90
3756;DHT22;1893;52.526;13.360;2023-08-30T12:02:08;20.60;99.90
3756;DHT22;1893;52.526;13.360;2023-08-30T12:04:44;20.40;99.90
3756;DHT22;1893;52.526;13.360;2023-08-30T12:07:23;20.30;99.90
3756;DHT22;1893;52.526;13.360;2023-08-30T12:09:49;20.40;99.90
3756;DHT22;1893;52.526;13.360;2023-08-30T12:12:15;20.30;99.90
3756;DHT22;1893;52.526;13.360;2023-08-30T12:14:40;20.50;99.90
3756;DHT22;1893;52.526;13.360;2023-08-30T12:17:08;20.60;99.90
3756;DHT22;1893;52.526;13.360;2023-08-30T12:19:34;20.80;99.90
3756;DHT22;1893;52.526;13.360;2023-08-30T12:22:06;20.70;99.90
3756;DHT22;1893;52.526;13.360;2023-08-30T12:24:45;20.50;99.90
3756;DHT22;1893;52.526;13.360;2023-08-30T12:27:11;20.50;99.90
3756;DHT22;1893;52.526;13.360;2023-08-30T12:29:37;20.40;99.90
3756;DHT22;1893;52.526;13.360;2023-08-30T12:32:03;20.20;99.90
3756;DHT22;1893;52.526;13.360;2023-08-30T12:34:28;20.10;99.90
3756;DHT22;1893;52.526;13.360;2023-08-30T12:36:54;20.00;99.90
3756;DHT22;1893;52.526;13.360;2023-08-30T12:39:20;19.90;99.90
3756;DHT22;1893;52.526;13.360;2023-08-30T12:41:46;19.80;99.90
3756;DHT22;1893;52.526;13.360;2023-08-30T12:44:12;19.70;99.90
3756;DHT22;1893;52.526;13.360;2023-08-30T12:46:38;19.90;99.90
3756;DHT22;1893;52.526;13.360;2023-08-30T12:49:03;19.90;99.90
3756;DHT22;1893;52.526;13.360;2023-08-30T12:51:29;19.80;99.90
3756;DHT22;1893;52.526;13.360;2023-08-30T12:53:55;19.90;99.90
3756;DHT22;1893;52.526;13.360;2023-08-30T12:56:21;19.90;99.90
3756;DHT22;1893;52.526;13.360;2023-08-30T12:58:47;19.80;99.90
3756;DHT22;1893;52.526;13.360;2023-08-30T13:01:12;19.80;99.90
3756;DHT22;1893;52.526;13.360;2023-08-30T13:03:38;19.70;99.90
3756;DHT22;1893;52.526;13.360;2023-08-30T13:06:04;19.80;99.90
3756;DHT22;1893;52.526;13.360;2023-08-30T13:08:29;19.80;99.90
3756;DHT22;1893;52.526;13.360;2023-08-30T13:10:55;19.80;99.90
3756;DHT22;1893;52.526;13.360;2023-08-30T13:13:21;19.80;99.90
3756;DHT22;1893;52.526;13.360;2023-08-30T13:15:47;19.90;99.90
3756;DHT22;1893;52.526;13.360;2023-08-30T13:18:14;19.90;99.90
3756;DHT22;1893;52.526;13.360;2023-08-30T13:20:41;19.90;99.90
3756;DHT22;1893;52.526;13.360;2023-08-30T13:23:07;20.00;99.90
3756;DHT22;1893;52.526;13.360;2023-08-30T13:25:33;20.10;99.90
3756;DHT22;1893;52.526;13.360;2023-08-30T13:27:58;20.10;99.90
3756;DHT22;1893;52.526;13.360;2023-08-30T13:30:24;20.10;99.90
3756;DHT22;1893;52.526;13.360;2023-08-30T13:32:49;20.10;99.90
3756;DHT22;1893;52.526;13.360;2023-08-30T13:35:15;20.10;99.90
3756;DHT22;1893;52.526;13.360;2023-08-30T13:37:41;20.10;99.90
3756;DHT22;1893;52.526;13.360;2023-08-30T13:40:07;20.10;99.90
3756;DHT22;1893;52.526;13.360;2023-08-30T13:42:35;20.00;99.90
3756;DHT22;1893;52.526;13.360;2023-08-30T13:45:00;20.00;99.90
3756;DHT22;1893;52.526;13.360;2023-08-30T13:47:26;20.00;99.90
3756;DHT22;1893;52.526;13.360;2023-08-30T13:49:52;20.00;99.90
3756;DHT22;1893;52.526;13.360;2023-08-30T13:52:17;20.10;99.90
3756;DHT22;1893;52.526;13.360;2023-08-30T13:54:43;20.20;99.90
3756;DHT22;1893;52.526;13.360;2023-08-30T13:57:09;20.30;99.90
3756;DHT22;1893;52.526;13.360;2023-08-30T13:59:34;20.80;99.90
3756;DHT22;1893;52.526;13.360;2023-08-30T14:02:02;21.30;99.90
3756;DHT22;1893;52.526;13.360;2023-08-30T14:04:29;21.60;99.90
3756;DHT22;1893;52.526;13.360;2023-08-30T14:06:58;21.60;99.90
3756;DHT22;1893;52.526;13.360;2023-08-30T14:09:23;21.60;99.90
3756;DHT22;1893;52.526;13.360;2023-08-30T14:11:49;21.60;99.90
3756;DHT22;1893;52.526;13.360;2023-08-30T14:14:15;21.40;99.90
3756;DHT22;1893;52.526;13.360;2023-08-30T14:16:40;21.40;99.90
3756;DHT22;1893;52.526;13.360;2023-08-30T14:19:06;21.60;99.90
3756;DHT22;1893;52.526;13.360;2023-08-30T14:21:35;21.50;99.90
3756;DHT22;1893;52.526;13.360;2023-08-30T14:24:01;21.40;99.90
3756;DHT22;1893;52.526;13.360;2023-08-30T14:26:27;21.20;99.90
3756;DHT22;1893;52.526;13.360;2023-08-30T14:28:53;20.90;99.90
3756;DHT22;1893;52.526;13.360;2023-08-30T14:31:18;21.00;99.90
3756;DHT22;1893;52.526;13.360;2023-08-30T14:33:44;21.10;99.90
3756;DHT22;1893;52.526;13.360;2023-08-30T14:36:10;21.30;99.90
3756;DHT22;1893;52.526;13.360;2023-08-30T14:38:36;21.30;99.90
3756;DHT22;1893;52.526;13.360;2023-08-30T14:41:02;21.30;99.90
3756;DHT22;1893;52.526;13.360;2023-08-30T14:43:28;21.40;99.90
3756;DHT22;1893;52.526;13.360;2023-08-30T14:46:05;21.20;99.90
3756;DHT22;1893;52.526;13.360;2023-08-30T14:48:34;21.20;99.90
3756;DHT22;1893;52.526;13.360;2023-08-30T14:51:00;21.00;99.90
3756;DHT22;1893;52.526;13.360;2023-08-30T14:53:26;21.00;99.90
3756;DHT22;1893;52.526;13.360;2023-08-30T14:55:52;21.00;99.90
3756;DHT22;1893;52.526;13.360;2023-08-30T14:58:19;20.90;99.90
3756;DHT22;1893;52.526;13.360;2023-08-30T15:00:47;20.90;99.90
3756;DHT22;1893;52.526;13.360;2023-08-30T15:03:13;20.80;99.90
3756;DHT22;1893;52.526;13.360;2023-08-30T15:05:39;21.00;99.90
3756;DHT22;1893;52.526;13.360;2023-08-30T15:08:05;21.00;99.90
3756;DHT22;1893;52.526;13.360;2023-08-30T15:10:31;21.00;99.90
3756;DHT22;1893;52.526;13.360;2023-08-30T15:12:56;21.00;99.90
3756;DHT22;1893;52.526;13.360;2023-08-30T15:15:22;20.90;99.90
3756;DHT22;1893;52.526;13.360;2023-08-30T15:17:47;20.70;99.90
3756;DHT22;1893;52.526;13.360;2023-08-30T15:20:13;20.60;99.90
3756;DHT22;1893;52.526;13.360;2023-08-30T15:22:39;20.40;99.90
3756;DHT22;1893;52.526;13.360;2023-08-30T15:25:06;20.30;99.90
3756;DHT22;1893;52.526;13.360;2023-08-30T15:27:33;20.10;99.90
3756;DHT22;1893;52.526;13.360;2023-08-30T15:29:59;20.00;99.90
3756;DHT22;1893;52.526;13.360;2023-08-30T15:32:25;19.90;99.90
3756;DHT22;1893;52.526;13.360;2023-08-30T15:34:50;19.90;99.90
3756;DHT22;1893;52.526;13.360;2023-08-30T15:37:16;19.80;99.90
3756;DHT22;1893;52.526;13.360;2023-08-30T15:39:42;19.70;99.90
3756;DHT22;1893;52.526;13.360;2023-08-30T15:42:08;19.70;99.90
3756;DHT22;1893;52.526;13.360;2023-08-30T15:44:34;19.70;99.90